Pagina principale
METAR-TAF:

METAR-TAF

Aeroporti :

Aeroporto di Brindisi-Casale

Brindisi, Italia

latitudine: 40-39N, longitudine: 017-57E, altezza: 15 m

Osservazione

Il bollettino è stato emesso 24 minuti fa, alle 11:50 UTC
Vento 8 kt da est, variando fra est/nord-est e sud-est
Temperature 25°C
Umidità 74%
Pressione 1017 hPa
Visibilità 10 km o più
Nubi sparse ad un'altezza di 4000 ft

METAR: LIBR 271150Z 10008KT 070V140 9999 SCT040 25/20 Q1017

Ora: 14:14 (12:14 UTC)

Previsione

Il bollettino è stato emesso 1 ora e 14 minuti fa, alle 11:00 UTC
Previsione valida dal 27 alle 12 UTC al 28 alle 12 UTC
Vento 12 kt da est/nord-est
Visibilità 10 km o più
Poco nuvoloso ad un'altezza di 4000 ft
Evoluzione graduale
dal 27 alle 14 UTC al 27 alle 16 UTC
Vento 8 kt da sud
Evoluzione graduale
dal 27 alle 18 UTC al 27 alle 20 UTC
Vento 10 kt da nord

TAF: LIBR 271100Z 2712/2812 06012KT 9999 FEW040 BECMG 2714/2716 18008KT BECMG 2718/2720 35010KT

Osservazioni e previsioni meteorologiche di più di 4000 aeroporti (messaggi METAR e TAF).

Le stazioni disponibili sono rappresentate dai dischi gialli e rossi sulla carta.

Puntare il mouse per vedere il nome della stazione.

Clicca sopra per visualizzare le osservazioni e previsioni meteorologiche.

Per cambiare la mappa : fare clic sui pulsanti verdi con una croce nera per ingrandire, il pulsante verde con un trattino per diminuire, o sulla freccia verde per le mappe adiacenti.


METAR-TAF: